sensor_id;sensor_type;location;lat;lon;timestamp;pressure;altitude;pressure_sealevel;temperature;humidity
71772;BME280;59606;52.138;5.424;2022-12-01T00:01:05;102972.00;;;4.72;100.00
71772;BME280;59606;52.138;5.424;2022-12-01T00:03:32;102961.69;;;4.72;100.00
71772;BME280;59606;52.138;5.424;2022-12-01T00:06:02;102961.72;;;4.74;100.00
71772;BME280;59606;52.138;5.424;2022-12-01T00:08:30;102960.84;;;4.75;100.00
71772;BME280;59606;52.138;5.424;2022-12-01T00:11:07;102957.41;;;4.76;100.00
71772;BME280;59606;52.138;5.424;2022-12-01T00:13:35;102964.31;;;4.77;100.00
71772;BME280;59606;52.138;5.424;2022-12-01T00:16:13;102963.44;;;4.78;100.00
71772;BME280;59606;52.138;5.424;2022-12-01T00:18:40;102966.03;;;4.80;100.00
71772;BME280;59606;52.138;5.424;2022-12-01T00:21:13;102956.56;;;4.79;100.00
71772;BME280;59606;52.138;5.424;2022-12-01T00:23:48;102961.75;;;4.80;100.00
71772;BME280;59606;52.138;5.424;2022-12-01T00:26:16;102964.31;;;4.82;100.00
71772;BME280;59606;52.138;5.424;2022-12-01T00:28:47;102966.03;;;4.81;100.00
71772;BME280;59606;52.138;5.424;2022-12-01T00:31:14;102965.19;;;4.81;100.00
71772;BME280;59606;52.138;5.424;2022-12-01T00:33:40;102963.44;;;4.81;100.00
71772;BME280;59606;52.138;5.424;2022-12-01T00:36:07;102959.16;;;4.82;100.00
71772;BME280;59606;52.138;5.424;2022-12-01T00:38:34;102960.88;;;4.81;100.00
71772;BME280;59606;52.138;5.424;2022-12-01T00:41:01;102962.59;;;4.81;100.00
71772;BME280;59606;52.138;5.424;2022-12-01T00:43:27;102961.72;;;4.82;100.00
71772;BME280;59606;52.138;5.424;2022-12-01T00:45:53;102960.00;;;4.82;100.00
71772;BME280;59606;52.138;5.424;2022-12-01T00:48:22;102954.88;;;4.84;100.00
71772;BME280;59606;52.138;5.424;2022-12-01T00:50:52;102956.56;;;4.85;100.00
71772;BME280;59606;52.138;5.424;2022-12-01T00:53:19;102960.88;;;4.86;100.00
71772;BME280;59606;52.138;5.424;2022-12-01T00:55:46;102951.44;;;4.86;100.00
71772;BME280;59606;52.138;5.424;2022-12-01T00:58:12;102956.59;;;4.86;100.00
71772;BME280;59606;52.138;5.424;2022-12-01T01:00:39;102960.91;;;4.87;100.00
71772;BME280;59606;52.138;5.424;2022-12-01T01:03:06;102965.19;;;4.88;100.00
71772;BME280;59606;52.138;5.424;2022-12-01T01:05:40;102972.06;;;4.89;100.00
71772;BME280;59606;52.138;5.424;2022-12-01T01:08:11;102964.31;;;4.89;100.00
71772;BME280;59606;52.138;5.424;2022-12-01T01:10:39;102966.06;;;4.90;100.00
71772;BME280;59606;52.138;5.424;2022-12-01T01:13:07;102972.06;;;4.89;100.00
71772;BME280;59606;52.138;5.424;2022-12-01T01:15:34;102972.97;;;4.90;100.00
71772;BME280;59606;52.138;5.424;2022-12-01T01:18:00;102976.41;;;4.90;100.00
71772;BME280;59606;52.138;5.424;2022-12-01T01:20:27;102977.25;;;4.91;100.00
71772;BME280;59606;52.138;5.424;2022-12-01T01:22:54;102982.44;;;4.91;100.00
71772;BME280;59606;52.138;5.424;2022-12-01T01:25:20;102974.66;;;4.92;100.00
71772;BME280;59606;52.138;5.424;2022-12-01T01:27:48;102973.81;;;4.92;100.00
71772;BME280;59606;52.138;5.424;2022-12-01T01:30:14;102970.41;;;4.93;100.00
71772;BME280;59606;52.138;5.424;2022-12-01T01:32:41;102972.09;;;4.94;100.00
71772;BME280;59606;52.138;5.424;2022-12-01T01:35:08;102972.09;;;4.94;100.00
71772;BME280;59606;52.138;5.424;2022-12-01T01:37:34;102982.44;;;4.94;100.00
71772;BME280;59606;52.138;5.424;2022-12-01T01:40:01;102979.84;;;4.95;100.00
71772;BME280;59606;52.138;5.424;2022-12-01T01:42:27;102976.44;;;4.96;100.00
71772;BME280;59606;52.138;5.424;2022-12-01T01:44:56;102984.19;;;4.96;99.95
71772;BME280;59606;52.138;5.424;2022-12-01T01:47:34;102984.16;;;4.98;100.00
71772;BME280;59606;52.138;5.424;2022-12-01T01:50:07;102985.91;;;4.97;100.00
71772;BME280;59606;52.138;5.424;2022-12-01T01:52:38;102986.75;;;4.98;100.00
71772;BME280;59606;52.138;5.424;2022-12-01T01:55:07;102986.75;;;4.98;100.00
71772;BME280;59606;52.138;5.424;2022-12-01T01:57:34;102980.72;;;4.99;100.00
71772;BME280;59606;52.138;5.424;2022-12-01T02:00:05;102985.88;;;4.99;100.00
71772;BME280;59606;52.138;5.424;2022-12-01T02:02:37;102985.03;;;4.99;100.00
71772;BME280;59606;52.138;5.424;2022-12-01T02:05:08;102989.31;;;5.00;100.00
71772;BME280;59606;52.138;5.424;2022-12-01T02:07:39;102985.88;;;4.99;100.00
71772;BME280;59606;52.138;5.424;2022-12-01T02:10:09;102987.63;;;5.00;100.00
71772;BME280;59606;52.138;5.424;2022-12-01T02:13:05;102980.75;;;5.01;100.00
71772;BME280;59606;52.138;5.424;2022-12-01T02:18:30;102976.44;;;5.01;100.00
71772;BME280;59606;52.138;5.424;2022-12-01T02:21:20;102974.72;;;5.02;100.00
71772;BME280;59606;52.138;5.424;2022-12-01T02:26:41;102971.25;;;5.01;100.00
71772;BME280;59606;52.138;5.424;2022-12-01T02:31:56;102964.38;;;5.00;100.00
71772;BME280;59606;52.138;5.424;2022-12-01T02:45:30;102965.25;;;5.01;100.00
71772;BME280;59606;52.138;5.424;2022-12-01T02:48:00;102976.41;;;5.00;100.00
71772;BME280;59606;52.138;5.424;2022-12-01T02:50:30;102972.97;;;4.99;100.00
71772;BME280;59606;52.138;5.424;2022-12-01T02:53:00;102972.13;;;4.99;100.00
71772;BME280;59606;52.138;5.424;2022-12-01T02:55:28;102976.41;;;5.00;100.00
71772;BME280;59606;52.138;5.424;2022-12-01T02:57:54;102982.44;;;4.99;100.00
71772;BME280;59606;52.138;5.424;2022-12-01T03:00:21;102975.56;;;4.99;100.00
71772;BME280;59606;52.138;5.424;2022-12-01T03:14:28;102981.56;;;5.00;100.00
71772;BME280;59606;52.138;5.424;2022-12-01T03:17:03;102979.88;;;5.00;99.98
71772;BME280;59606;52.138;5.424;2022-12-01T03:19:38;102982.47;;;5.00;100.00
71772;BME280;59606;52.138;5.424;2022-12-01T03:22:10;102979.88;;;5.00;100.00
71772;BME280;59606;52.138;5.424;2022-12-01T03:24:40;102976.41;;;5.00;100.00
71772;BME280;59606;52.138;5.424;2022-12-01T03:27:10;102981.59;;;5.01;100.00
71772;BME280;59606;52.138;5.424;2022-12-01T03:29:42;102975.56;;;5.01;100.00
71772;BME280;59606;52.138;5.424;2022-12-01T03:32:17;102979.00;;;5.01;99.75
71772;BME280;59606;52.138;5.424;2022-12-01T03:34:52;102979.88;;;5.00;100.00
71772;BME280;59606;52.138;5.424;2022-12-01T03:37:25;102982.44;;;4.99;100.00
71772;BME280;59606;52.138;5.424;2022-12-01T03:39:54;102963.50;;;5.00;100.00
71772;BME280;59606;52.138;5.424;2022-12-01T03:42:34;102972.97;;;4.99;99.84
71772;BME280;59606;52.138;5.424;2022-12-01T03:45:07;102969.53;;;4.99;99.74
71772;BME280;59606;52.138;5.424;2022-12-01T03:47:34;102981.59;;;4.96;99.86
71772;BME280;59606;52.138;5.424;2022-12-01T03:50:04;102977.28;;;4.97;99.82
71772;BME280;59606;52.138;5.424;2022-12-01T03:53:11;102983.28;;;4.96;100.00
71772;BME280;59606;52.138;5.424;2022-12-01T03:55:49;102986.75;;;4.96;99.40
71772;BME280;59606;52.138;5.424;2022-12-01T03:58:24;102977.25;;;4.95;99.75
71772;BME280;59606;52.138;5.424;2022-12-01T04:00:52;102973.81;;;4.95;99.73
71772;BME280;59606;52.138;5.424;2022-12-01T04:03:24;102971.25;;;4.93;99.94
71772;BME280;59606;52.138;5.424;2022-12-01T04:05:51;102980.72;;;4.93;100.00
71772;BME280;59606;52.138;5.424;2022-12-01T04:08:17;102979.00;;;4.90;99.61
71772;BME280;59606;52.138;5.424;2022-12-01T04:10:44;102983.28;;;4.90;99.42
71772;BME280;59606;52.138;5.424;2022-12-01T04:13:10;102977.25;;;4.88;100.00
71772;BME280;59606;52.138;5.424;2022-12-01T04:15:42;102975.53;;;4.88;99.79
71772;BME280;59606;52.138;5.424;2022-12-01T04:18:08;102985.88;;;4.87;100.00
71772;BME280;59606;52.138;5.424;2022-12-01T04:20:35;102988.44;;;4.87;99.92
71772;BME280;59606;52.138;5.424;2022-12-01T04:23:01;102978.94;;;4.86;100.00
71772;BME280;59606;52.138;5.424;2022-12-01T04:25:28;102984.13;;;4.86;99.78
71772;BME280;59606;52.138;5.424;2022-12-01T04:27:54;102980.69;;;4.87;100.00
71772;BME280;59606;52.138;5.424;2022-12-01T04:30:20;102989.28;;;4.86;100.00
71772;BME280;59606;52.138;5.424;2022-12-01T04:32:47;102987.56;;;4.83;100.00
71772;BME280;59606;52.138;5.424;2022-12-01T04:35:13;102982.41;;;4.85;99.79
71772;BME280;59606;52.138;5.424;2022-12-01T04:37:39;102992.72;;;4.85;99.81
71772;BME280;59606;52.138;5.424;2022-12-01T04:40:07;102994.44;;;4.86;99.96
71772;BME280;59606;52.138;5.424;2022-12-01T04:42:34;102991.00;;;4.85;99.80
71772;BME280;59606;52.138;5.424;2022-12-01T04:45:00;102986.69;;;4.86;100.00
71772;BME280;59606;52.138;5.424;2022-12-01T04:47:27;102985.00;;;4.86;99.82
71772;BME280;59606;52.138;5.424;2022-12-01T04:49:53;102989.28;;;4.86;100.00
71772;BME280;59606;52.138;5.424;2022-12-01T04:52:19;102985.84;;;4.85;99.95
71772;BME280;59606;52.138;5.424;2022-12-01T04:54:46;102994.44;;;4.86;100.00
71772;BME280;59606;52.138;5.424;2022-12-01T04:57:12;102984.13;;;4.86;100.00
71772;BME280;59606;52.138;5.424;2022-12-01T04:59:39;102982.44;;;4.86;100.00
71772;BME280;59606;52.138;5.424;2022-12-01T05:02:05;102973.81;;;4.84;100.00
71772;BME280;59606;52.138;5.424;2022-12-01T05:04:32;102982.41;;;4.85;100.00
71772;BME280;59606;52.138;5.424;2022-12-01T05:06:59;102982.41;;;4.83;100.00
71772;BME280;59606;52.138;5.424;2022-12-01T05:09:25;102978.09;;;4.82;100.00
71772;BME280;59606;52.138;5.424;2022-12-01T05:11:52;102986.69;;;4.80;100.00
71772;BME280;59606;52.138;5.424;2022-12-01T05:14:18;102985.81;;;4.78;100.00
71772;BME280;59606;52.138;5.424;2022-12-01T05:16:45;102986.69;;;4.77;100.00
71772;BME280;59606;52.138;5.424;2022-12-01T05:19:11;102981.50;;;4.73;100.00
71772;BME280;59606;52.138;5.424;2022-12-01T05:21:56;102980.63;;;4.70;100.00
71772;BME280;59606;52.138;5.424;2022-12-01T05:24:22;102983.19;;;4.65;100.00
71772;BME280;59606;52.138;5.424;2022-12-01T05:26:49;102992.63;;;4.62;99.98
71772;BME280;59606;52.138;5.424;2022-12-01T05:29:15;103000.34;;;4.59;100.00
71772;BME280;59606;52.138;5.424;2022-12-01T05:31:44;103003.81;;;4.58;100.00
71772;BME280;59606;52.138;5.424;2022-12-01T05:34:10;103002.09;;;4.57;100.00
71772;BME280;59606;52.138;5.424;2022-12-01T05:36:37;103002.09;;;4.57;100.00
71772;BME280;59606;52.138;5.424;2022-12-01T05:39:03;103006.38;;;4.55;100.00
71772;BME280;59606;52.138;5.424;2022-12-01T05:41:30;103007.22;;;4.55;100.00
71772;BME280;59606;52.138;5.424;2022-12-01T05:43:57;102998.66;;;4.56;100.00
71772;BME280;59606;52.138;5.424;2022-12-01T05:46:23;102990.00;;;4.56;100.00
71772;BME280;59606;52.138;5.424;2022-12-01T05:48:49;103002.09;;;4.58;100.00
71772;BME280;59606;52.138;5.424;2022-12-01T05:51:16;102995.19;;;4.59;100.00
71772;BME280;59606;52.138;5.424;2022-12-01T05:53:43;102998.66;;;4.61;100.00
71772;BME280;59606;52.138;5.424;2022-12-01T05:56:10;102996.09;;;4.61;100.00
71772;BME280;59606;52.138;5.424;2022-12-01T05:58:37;102998.66;;;4.61;100.00
71772;BME280;59606;52.138;5.424;2022-12-01T06:01:03;102996.09;;;4.61;100.00
71772;BME280;59606;52.138;5.424;2022-12-01T06:03:30;102991.78;;;4.60;100.00
71772;BME280;59606;52.138;5.424;2022-12-01T06:05:56;102990.91;;;4.58;100.00
71772;BME280;59606;52.138;5.424;2022-12-01T06:08:23;102986.59;;;4.54;100.00
71772;BME280;59606;52.138;5.424;2022-12-01T06:10:50;102985.72;;;4.50;100.00
71772;BME280;59606;52.138;5.424;2022-12-01T06:13:16;102983.94;;;4.43;100.00
71772;BME280;59606;52.138;5.424;2022-12-01T06:15:43;102988.22;;;4.36;100.00
71772;BME280;59606;52.138;5.424;2022-12-01T06:18:09;102995.91;;;4.32;99.92
71772;BME280;59606;52.138;5.424;2022-12-01T06:20:36;102994.16;;;4.24;100.00
71772;BME280;59606;52.138;5.424;2022-12-01T06:23:02;103001.88;;;4.21;99.98
71772;BME280;59606;52.138;5.424;2022-12-01T06:25:29;103003.53;;;4.15;100.00
71772;BME280;59606;52.138;5.424;2022-12-01T06:27:57;103011.25;;;4.10;100.00
71772;BME280;59606;52.138;5.424;2022-12-01T06:30:24;103005.19;;;4.05;100.00
71772;BME280;59606;52.138;5.424;2022-12-01T06:32:50;103010.31;;;3.99;100.00
71772;BME280;59606;52.138;5.424;2022-12-01T06:35:17;103008.56;;;3.95;99.83
71772;BME280;59606;52.138;5.424;2022-12-01T06:37:43;103009.41;;;3.89;99.93
71772;BME280;59606;52.138;5.424;2022-12-01T06:40:10;103007.66;;;3.87;99.98
71772;BME280;59606;52.138;5.424;2022-12-01T06:42:37;103006.75;;;3.85;99.82
71772;BME280;59606;52.138;5.424;2022-12-01T06:45:04;103009.34;;;3.83;100.00
71772;BME280;59606;52.138;5.424;2022-12-01T06:47:31;103012.75;;;3.79;100.00
71772;BME280;59606;52.138;5.424;2022-12-01T06:49:57;103010.97;;;3.73;100.00
71772;BME280;59606;52.138;5.424;2022-12-01T06:52:23;103014.38;;;3.69;100.00
71772;BME280;59606;52.138;5.424;2022-12-01T06:54:50;103011.75;;;3.63;99.95
71772;BME280;59606;52.138;5.424;2022-12-01T06:57:16;103020.31;;;3.61;99.70
71772;BME280;59606;52.138;5.424;2022-12-01T06:59:43;103025.41;;;3.54;99.83
71772;BME280;59606;52.138;5.424;2022-12-01T07:02:12;103026.22;;;3.50;99.86
71772;BME280;59606;52.138;5.424;2022-12-01T07:04:39;103025.34;;;3.47;100.00
71772;BME280;59606;52.138;5.424;2022-12-01T07:07:05;103035.59;;;3.45;99.90
71772;BME280;59606;52.138;5.424;2022-12-01T07:09:32;103036.47;;;3.43;100.00
71772;BME280;59606;52.138;5.424;2022-12-01T07:11:59;103030.41;;;3.41;100.00
71772;BME280;59606;52.138;5.424;2022-12-01T07:14:25;103033.00;;;3.39;99.48
71772;BME280;59606;52.138;5.424;2022-12-01T07:16:52;103035.50;;;3.35;99.91
71772;BME280;59606;52.138;5.424;2022-12-01T07:19:19;103038.03;;;3.30;99.81
71772;BME280;59606;52.138;5.424;2022-12-01T07:21:45;103047.47;;;3.29;99.96
71772;BME280;59606;52.138;5.424;2022-12-01T07:24:12;103050.03;;;3.28;99.63
71772;BME280;59606;52.138;5.424;2022-12-01T07:26:39;103051.75;;;3.27;99.52
71772;BME280;59606;52.138;5.424;2022-12-01T07:29:07;103058.66;;;3.30;100.00
71772;BME280;59606;52.138;5.424;2022-12-01T07:31:35;103060.41;;;3.33;100.00
71772;BME280;59606;52.138;5.424;2022-12-01T07:34:02;103067.28;;;3.35;100.00
71772;BME280;59606;52.138;5.424;2022-12-01T07:36:29;103067.28;;;3.34;100.00
71772;BME280;59606;52.138;5.424;2022-12-01T07:38:56;103073.28;;;3.34;100.00
71772;BME280;59606;52.138;5.424;2022-12-01T07:41:22;103064.69;;;3.35;100.00
71772;BME280;59606;52.138;5.424;2022-12-01T07:43:49;103068.19;;;3.39;100.00
71772;BME280;59606;52.138;5.424;2022-12-01T07:46:19;103069.94;;;3.41;100.00
71772;BME280;59606;52.138;5.424;2022-12-01T07:48:50;103068.25;;;3.43;100.00
71772;BME280;59606;52.138;5.424;2022-12-01T07:51:17;103072.53;;;3.44;100.00
71772;BME280;59606;52.138;5.424;2022-12-01T07:53:45;103070.84;;;3.46;100.00
71772;BME280;59606;52.138;5.424;2022-12-01T07:56:12;103076.91;;;3.50;100.00
71772;BME280;59606;52.138;5.424;2022-12-01T07:58:39;103081.22;;;3.54;100.00
71772;BME280;59606;52.138;5.424;2022-12-01T08:01:17;103076.16;;;3.60;100.00
71772;BME280;59606;52.138;5.424;2022-12-01T08:03:44;103085.63;;;3.64;100.00
71772;BME280;59606;52.138;5.424;2022-12-01T08:06:11;103085.66;;;3.69;100.00
71772;BME280;59606;52.138;5.424;2022-12-01T08:08:38;103085.72;;;3.73;100.00
71772;BME280;59606;52.138;5.424;2022-12-01T08:11:17;103085.75;;;3.76;100.00
71772;BME280;59606;52.138;5.424;2022-12-01T08:13:43;103092.69;;;3.81;100.00
71772;BME280;59606;52.138;5.424;2022-12-01T08:16:12;103080.66;;;3.84;100.00
71772;BME280;59606;52.138;5.424;2022-12-01T08:18:41;103086.75;;;3.89;100.00
71772;BME280;59606;52.138;5.424;2022-12-01T08:21:10;103087.59;;;3.91;100.00
71772;BME280;59606;52.138;5.424;2022-12-01T08:23:37;103091.94;;;3.95;100.00
71772;BME280;59606;52.138;5.424;2022-12-01T08:26:06;103091.13;;;3.99;100.00
71772;BME280;59606;52.138;5.424;2022-12-01T08:28:36;103082.56;;;4.04;100.00
71772;BME280;59606;52.138;5.424;2022-12-01T08:31:07;103089.47;;;4.06;100.00
71772;BME280;59606;52.138;5.424;2022-12-01T08:33:34;103095.53;;;4.10;100.00
71772;BME280;59606;52.138;5.424;2022-12-01T08:36:01;103099.81;;;4.12;100.00
71772;BME280;59606;52.138;5.424;2022-12-01T08:38:28;103098.16;;;4.16;100.00
71772;BME280;59606;52.138;5.424;2022-12-01T08:40:59;103099.91;;;4.20;100.00
71772;BME280;59606;52.138;5.424;2022-12-01T08:43:25;103103.38;;;4.23;100.00
71772;BME280;59606;52.138;5.424;2022-12-01T08:46:12;103099.97;;;4.26;100.00
71772;BME280;59606;52.138;5.424;2022-12-01T08:48:39;103101.72;;;4.30;100.00
71772;BME280;59606;52.138;5.424;2022-12-01T08:51:11;103097.44;;;4.34;100.00
71772;BME280;59606;52.138;5.424;2022-12-01T08:53:40;103107.75;;;4.35;100.00
71772;BME280;59606;52.138;5.424;2022-12-01T08:56:22;103099.22;;;4.39;100.00
71772;BME280;59606;52.138;5.424;2022-12-01T08:58:50;103102.63;;;4.41;100.00
71772;BME280;59606;52.138;5.424;2022-12-01T09:01:18;103096.66;;;4.44;100.00
71772;BME280;59606;52.138;5.424;2022-12-01T09:03:45;103100.97;;;4.46;100.00
71772;BME280;59606;52.138;5.424;2022-12-01T09:06:17;103107.00;;;4.48;100.00
71772;BME280;59606;52.138;5.424;2022-12-01T09:08:47;103098.41;;;4.49;100.00
71772;BME280;59606;52.138;5.424;2022-12-01T09:11:17;103099.28;;;4.52;100.00
71772;BME280;59606;52.138;5.424;2022-12-01T09:13:44;103092.38;;;4.52;100.00
71772;BME280;59606;52.138;5.424;2022-12-01T09:16:18;103094.13;;;4.55;100.00
71772;BME280;59606;52.138;5.424;2022-12-01T09:18:45;103095.88;;;4.57;100.00
71772;BME280;59606;52.138;5.424;2022-12-01T09:21:19;103093.31;;;4.60;100.00
71772;BME280;59606;52.138;5.424;2022-12-01T09:23:46;103100.19;;;4.61;100.00
71772;BME280;59606;52.138;5.424;2022-12-01T09:26:13;103097.63;;;4.64;100.00
71772;BME280;59606;52.138;5.424;2022-12-01T09:28:48;103094.19;;;4.65;100.00
71772;BME280;59606;52.138;5.424;2022-12-01T09:31:16;103094.22;;;4.67;100.00
71772;BME280;59606;52.138;5.424;2022-12-01T09:33:43;103096.81;;;4.70;100.00
71772;BME280;59606;52.138;5.424;2022-12-01T09:36:10;103098.53;;;4.72;100.00
71772;BME280;59606;52.138;5.424;2022-12-01T09:38:37;103094.25;;;4.75;100.00
71772;BME280;59606;52.138;5.424;2022-12-01T09:41:18;103089.09;;;4.76;100.00
71772;BME280;59606;52.138;5.424;2022-12-01T09:46:46;103090.84;;;4.82;100.00
71772;BME280;59606;52.138;5.424;2022-12-01T09:49:21;103087.41;;;4.83;100.00
71772;BME280;59606;52.138;5.424;2022-12-01T09:51:52;103077.97;;;4.85;100.00
71772;BME280;59606;52.138;5.424;2022-12-01T09:54:20;103074.53;;;4.87;100.00
71772;BME280;59606;52.138;5.424;2022-12-01T09:56:49;103072.81;;;4.89;100.00
71772;BME280;59606;52.138;5.424;2022-12-01T09:59:23;103075.41;;;4.92;100.00
71772;BME280;59606;52.138;5.424;2022-12-01T10:01:54;103059.06;;;4.93;100.00
71772;BME280;59606;52.138;5.424;2022-12-01T10:06:53;103055.63;;;4.97;100.00
71772;BME280;59606;52.138;5.424;2022-12-01T10:09:27;103059.09;;;5.01;100.00
71772;BME280;59606;52.138;5.424;2022-12-01T10:12:16;103058.25;;;5.05;100.00
71772;BME280;59606;52.138;5.424;2022-12-01T10:14:45;103056.56;;;5.13;100.00
71772;BME280;59606;52.138;5.424;2022-12-01T10:20:27;103068.66;;;5.25;100.00
71772;BME280;59606;52.138;5.424;2022-12-01T10:25:36;103072.13;;;5.32;100.00
71772;BME280;59606;52.138;5.424;2022-12-01T10:31:33;103067.84;;;5.41;100.00
71772;BME280;59606;52.138;5.424;2022-12-01T10:34:06;103070.44;;;5.44;100.00
71772;BME280;59606;52.138;5.424;2022-12-01T10:36:33;103063.56;;;5.47;99.87
71772;BME280;59606;52.138;5.424;2022-12-01T10:39:02;103069.56;;;5.46;99.97
71772;BME280;59606;52.138;5.424;2022-12-01T10:41:31;103070.44;;;5.46;99.45
71772;BME280;59606;52.138;5.424;2022-12-01T10:44:02;103067.84;;;5.49;99.57
71772;BME280;59606;52.138;5.424;2022-12-01T10:46:44;103074.75;;;5.56;99.53
71772;BME280;59606;52.138;5.424;2022-12-01T10:49:15;103069.59;;;5.56;99.60
71772;BME280;59606;52.138;5.424;2022-12-01T10:52:09;103064.44;;;5.58;99.06
71772;BME280;59606;52.138;5.424;2022-12-01T10:54:51;103067.88;;;5.61;99.37
71772;BME280;59606;52.138;5.424;2022-12-01T10:57:17;103068.75;;;5.68;98.82
71772;BME280;59606;52.138;5.424;2022-12-01T11:02:19;103067.88;;;5.69;98.68
71772;BME280;59606;52.138;5.424;2022-12-01T11:05:00;103063.59;;;5.74;97.95
71772;BME280;59606;52.138;5.424;2022-12-01T11:07:31;103060.13;;;5.77;98.07
71772;BME280;59606;52.138;5.424;2022-12-01T11:10:12;103058.44;;;5.82;98.06
71772;BME280;59606;52.138;5.424;2022-12-01T11:12:41;103062.75;;;5.89;97.64
71772;BME280;59606;52.138;5.424;2022-12-01T11:15:19;103055.88;;;5.93;97.51
71772;BME280;59606;52.138;5.424;2022-12-01T11:17:46;103056.75;;;6.02;97.59
71772;BME280;59606;52.138;5.424;2022-12-01T11:20:36;103054.13;;;6.13;97.35
71772;BME280;59606;52.138;5.424;2022-12-01T11:25:40;103050.69;;;6.09;96.35
71772;BME280;59606;52.138;5.424;2022-12-01T11:28:18;103043.81;;;6.14;96.17
71772;BME280;59606;52.138;5.424;2022-12-01T11:30:46;103042.06;;;6.12;95.94
71772;BME280;59606;52.138;5.424;2022-12-01T11:33:16;103042.09;;;6.07;95.52
71772;BME280;59606;52.138;5.424;2022-12-01T11:35:46;103036.03;;;6.10;95.47
71772;BME280;59606;52.138;5.424;2022-12-01T11:38:21;103030.00;;;6.08;95.19
71772;BME280;59606;52.138;5.424;2022-12-01T11:41:24;103026.53;;;6.12;94.92
71772;BME280;59606;52.138;5.424;2022-12-01T11:43:52;103028.28;;;6.18;94.85
71772;BME280;59606;52.138;5.424;2022-12-01T11:46:30;103024.78;;;6.29;94.97
71772;BME280;59606;52.138;5.424;2022-12-01T11:48:59;103029.97;;;6.31;94.67
71772;BME280;59606;52.138;5.424;2022-12-01T11:51:31;103025.66;;;6.30;94.11
71772;BME280;59606;52.138;5.424;2022-12-01T11:56:45;103020.47;;;6.36;94.22
71772;BME280;59606;52.138;5.424;2022-12-01T11:59:29;103009.25;;;6.35;94.13
71772;BME280;59606;52.138;5.424;2022-12-01T12:02:09;103016.16;;;6.30;93.67
71772;BME280;59606;52.138;5.424;2022-12-01T12:05:12;103008.41;;;6.20;93.53
71772;BME280;59606;52.138;5.424;2022-12-01T12:10:51;103005.84;;;6.09;93.57
71772;BME280;59606;52.138;5.424;2022-12-01T12:14:07;103006.72;;;6.05;93.48
71772;BME280;59606;52.138;5.424;2022-12-01T12:16:56;103010.19;;;5.98;93.69
71772;BME280;59606;52.138;5.424;2022-12-01T12:23:11;102997.22;;;5.87;93.30
71772;BME280;59606;52.138;5.424;2022-12-01T12:28:27;103000.66;;;5.92;93.56
71772;BME280;59606;52.138;5.424;2022-12-01T12:31:23;102989.47;;;5.95;93.72
71772;BME280;59606;52.138;5.424;2022-12-01T12:34:10;102994.66;;;6.01;93.79
71772;BME280;59606;52.138;5.424;2022-12-01T12:37:12;102996.38;;;6.05;93.31
71772;BME280;59606;52.138;5.424;2022-12-01T12:47:43;102980.78;;;6.20;92.18
71772;BME280;59606;52.138;5.424;2022-12-01T12:50:40;102987.72;;;6.24;91.47
71772;BME280;59606;52.138;5.424;2022-12-01T12:53:24;102981.63;;;6.30;91.35
71772;BME280;59606;52.138;5.424;2022-12-01T12:55:58;102985.09;;;6.33;91.00
71772;BME280;59606;52.138;5.424;2022-12-01T12:58:28;102980.78;;;6.32;90.34
71772;BME280;59606;52.138;5.424;2022-12-01T13:01:12;102978.19;;;6.29;90.21
71772;BME280;59606;52.138;5.424;2022-12-01T13:03:48;102973.88;;;6.27;90.69
71772;BME280;59606;52.138;5.424;2022-12-01T13:06:30;102973.88;;;6.27;90.81
71772;BME280;59606;52.138;5.424;2022-12-01T13:11:43;102971.34;;;6.24;90.66
71772;BME280;59606;52.138;5.424;2022-12-01T13:14:32;102977.38;;;6.24;90.85
71772;BME280;59606;52.138;5.424;2022-12-01T13:17:22;102975.63;;;6.22;91.12
71772;BME280;59606;52.138;5.424;2022-12-01T13:19:50;102971.34;;;6.21;91.16
71772;BME280;59606;52.138;5.424;2022-12-01T13:22:20;102972.19;;;6.21;91.36
71772;BME280;59606;52.138;5.424;2022-12-01T13:24:49;102971.31;;;6.22;91.30
71772;BME280;59606;52.138;5.424;2022-12-01T13:27:19;102977.38;;;6.18;91.11
71772;BME280;59606;52.138;5.424;2022-12-01T13:29:48;102973.94;;;6.14;91.15
71772;BME280;59606;52.138;5.424;2022-12-01T13:32:45;102976.53;;;6.08;91.14
71772;BME280;59606;52.138;5.424;2022-12-01T13:35:31;102979.97;;;6.06;91.15
71772;BME280;59606;52.138;5.424;2022-12-01T13:38:31;102971.38;;;6.04;91.24
71772;BME280;59606;52.138;5.424;2022-12-01T13:41:29;102961.00;;;6.02;91.38
71772;BME280;59606;52.138;5.424;2022-12-01T13:43:58;102968.75;;;6.02;91.21
71772;BME280;59606;52.138;5.424;2022-12-01T13:49:03;102967.91;;;6.03;90.86
71772;BME280;59606;52.138;5.424;2022-12-01T13:54:35;102966.19;;;6.01;90.96
71772;BME280;59606;52.138;5.424;2022-12-01T13:57:04;102962.75;;;5.96;91.11
71772;BME280;59606;52.138;5.424;2022-12-01T14:02:20;102962.72;;;5.86;90.97
71772;BME280;59606;52.138;5.424;2022-12-01T14:04:47;102964.44;;;5.83;90.76
71772;BME280;59606;52.138;5.424;2022-12-01T14:07:32;102954.97;;;5.80;91.05
71772;BME280;59606;52.138;5.424;2022-12-01T14:10:35;102955.84;;;5.78;91.28
71772;BME280;59606;52.138;5.424;2022-12-01T14:13:03;102956.69;;;5.77;91.45
71772;BME280;59606;52.138;5.424;2022-12-01T14:15:34;102942.91;;;5.75;91.40
71772;BME280;59606;52.138;5.424;2022-12-01T14:18:19;102944.63;;;5.74;91.48
71772;BME280;59606;52.138;5.424;2022-12-01T14:20:49;102943.78;;;5.71;91.16
71772;BME280;59606;52.138;5.424;2022-12-01T14:25:56;102941.19;;;5.67;91.02
71772;BME280;59606;52.138;5.424;2022-12-01T14:31:22;102948.06;;;5.65;91.21
71772;BME280;59606;52.138;5.424;2022-12-01T14:34:10;102944.66;;;5.63;90.96
71772;BME280;59606;52.138;5.424;2022-12-01T14:36:57;102942.91;;;5.61;90.94
71772;BME280;59606;52.138;5.424;2022-12-01T14:39:30;102942.06;;;5.60;91.41
71772;BME280;59606;52.138;5.424;2022-12-01T14:44:46;102942.91;;;5.58;90.97